createdAt,value
2022-08-03T00:00:51.058Z,15.73
2022-08-03T00:06:04.338Z,18.00
2022-08-03T00:08:37.713Z,11.95
2022-08-03T00:11:11.488Z,11.25
2022-08-03T00:13:41.937Z,12.18
2022-08-03T00:18:42.972Z,13.05
2022-08-03T00:21:13.736Z,13.75
2022-08-03T00:23:52.510Z,14.27
2022-08-03T00:26:23.645Z,13.00
2022-08-03T00:28:54.102Z,13.35
2022-08-03T00:34:14.314Z,18.73
2022-08-03T00:39:14.536Z,12.05
2022-08-03T00:44:14.625Z,12.60
2022-08-03T00:46:45.157Z,12.70
2022-08-03T00:51:45.626Z,10.38
2022-08-03T00:54:19.325Z,12.07
2022-08-03T00:56:59.568Z,12.50
2022-08-03T00:59:31.663Z,13.07
2022-08-03T01:02:02.243Z,11.93
2022-08-03T01:04:32.861Z,12.63
2022-08-03T01:07:06.084Z,14.35
2022-08-03T01:10:04.785Z,14.15
2022-08-03T01:12:46.506Z,16.58
2022-08-03T01:15:34.920Z,11.60
2022-08-03T01:18:22.000Z,12.38
2022-08-03T01:20:58.338Z,10.77
2022-08-03T01:23:54.679Z,11.73
2022-08-03T01:26:50.772Z,12.27
2022-08-03T01:29:42.617Z,12.63
2022-08-03T01:32:59.109Z,13.82
2022-08-03T01:35:38.603Z,12.55
2022-08-03T01:38:39.761Z,12.35
2022-08-03T01:41:15.305Z,13.70
2022-08-03T01:44:26.463Z,12.98
2022-08-03T01:46:48.905Z,12.30
2022-08-03T01:49:19.996Z,13.07
2022-08-03T01:52:02.900Z,11.80
2022-08-03T01:54:42.817Z,12.10
2022-08-03T01:57:14.836Z,12.25
2022-08-03T01:59:46.998Z,10.73
2022-08-03T02:02:33.532Z,13.57
2022-08-03T02:05:10.662Z,11.52
2022-08-03T02:07:43.637Z,12.23
2022-08-03T02:10:34.851Z,12.07
2022-08-03T02:13:10.020Z,11.60
2022-08-03T02:15:41.311Z,11.68
2022-08-03T02:18:12.902Z,11.88
2022-08-03T02:20:46.121Z,12.00
2022-08-03T02:23:20.035Z,11.75
2022-08-03T02:25:59.971Z,17.98
2022-08-03T02:28:37.709Z,16.42
2022-08-03T02:31:30.851Z,15.65
2022-08-03T02:34:10.522Z,13.63
2022-08-03T02:36:44.030Z,12.88
2022-08-03T02:39:17.655Z,13.52
2022-08-03T02:41:58.499Z,12.13
2022-08-03T02:44:30.882Z,13.25
2022-08-03T02:47:11.362Z,13.05
2022-08-03T02:49:51.385Z,14.95
2022-08-03T02:52:25.823Z,16.80
2022-08-03T02:55:00.880Z,18.00
2022-08-03T02:57:33.293Z,13.95
2022-08-03T03:00:03.955Z,17.77
2022-08-03T03:02:34.611Z,16.85
2022-08-03T03:05:56.236Z,15.48
2022-08-03T03:07:57.620Z,16.92
2022-08-03T03:10:28.881Z,16.42
2022-08-03T03:13:00.663Z,14.45
2022-08-03T03:15:34.044Z,16.05
2022-08-03T03:18:05.767Z,13.68
2022-08-03T03:20:37.160Z,17.63
2022-08-03T03:23:08.864Z,8.80
2022-08-03T03:25:40.185Z,14.93
2022-08-03T03:28:12.276Z,14.75
2022-08-03T03:30:42.975Z,14.02
2022-08-03T03:33:14.063Z,15.68
2022-08-03T03:35:46.983Z,13.50
2022-08-03T03:38:17.385Z,14.90
2022-08-03T03:43:19.817Z,15.07
2022-08-03T03:45:52.859Z,16.92
2022-08-03T03:48:23.531Z,16.30
2022-08-03T03:50:54.455Z,15.77
2022-08-03T03:53:24.882Z,14.98
2022-08-03T03:55:59.471Z,13.90
2022-08-03T03:58:34.659Z,13.82
2022-08-03T04:01:05.386Z,14.30
2022-08-03T04:03:37.170Z,14.32
2022-08-03T04:06:25.680Z,15.32
2022-08-03T04:09:14.356Z,13.75
2022-08-03T04:11:54.792Z,13.60
2022-08-03T04:14:36.884Z,13.55
2022-08-03T04:17:10.958Z,15.07
2022-08-03T04:19:49.494Z,13.20
2022-08-03T04:22:28.725Z,14.65
2022-08-03T04:25:09.600Z,12.98
2022-08-03T04:27:43.033Z,13.48
2022-08-03T04:30:14.741Z,14.77
2022-08-03T04:32:47.325Z,13.45
2022-08-03T04:35:21.105Z,13.57
2022-08-03T04:38:15.059Z,13.18
2022-08-03T04:40:47.311Z,13.70
2022-08-03T04:43:20.277Z,13.05
2022-08-03T04:45:52.825Z,14.95
2022-08-03T04:48:23.287Z,12.73
2022-08-03T04:53:24.061Z,13.35
2022-08-03T04:55:57.192Z,14.30
2022-08-03T04:58:31.919Z,14.07
2022-08-03T05:03:33.152Z,12.57
2022-08-03T05:06:11.124Z,12.85
2022-08-03T05:08:46.895Z,13.60
2022-08-03T05:11:18.342Z,14.10
2022-08-03T05:13:49.353Z,13.48
2022-08-03T05:16:19.909Z,12.93
2022-08-03T05:18:50.737Z,14.45
2022-08-03T05:21:21.137Z,14.25
2022-08-03T05:23:54.521Z,14.60
2022-08-03T05:26:24.869Z,15.38
2022-08-03T05:28:57.134Z,14.40
2022-08-03T05:31:27.505Z,13.65
2022-08-03T05:33:59.252Z,15.13
2022-08-03T05:36:29.792Z,14.98
2022-08-03T05:39:02.826Z,13.93
2022-08-03T05:41:37.162Z,14.93
2022-08-03T05:44:08.151Z,15.80
2022-08-03T05:49:08.373Z,12.48
2022-08-03T05:51:38.894Z,13.82
2022-08-03T05:56:39.025Z,11.98
2022-08-03T06:01:59.425Z,12.80
2022-08-03T06:06:59.564Z,14.32
2022-08-03T06:09:31.821Z,14.30
2022-08-03T06:12:21.842Z,13.90
2022-08-03T06:14:52.440Z,14.73
2022-08-03T06:19:55.662Z,12.50
2022-08-03T06:22:26.139Z,14.02
2022-08-03T06:24:57.673Z,14.65
2022-08-03T06:30:10.207Z,13.00
2022-08-03T06:32:43.447Z,13.65
2022-08-03T06:35:22.966Z,14.98
2022-08-03T06:37:55.424Z,16.45
2022-08-03T06:40:35.892Z,14.13
2022-08-03T06:43:09.509Z,14.30
2022-08-03T06:45:42.891Z,13.38
2022-08-03T06:48:18.057Z,14.23
2022-08-03T06:50:48.598Z,14.07
2022-08-03T06:55:54.671Z,12.23
2022-08-03T06:58:25.519Z,13.07
2022-08-03T07:00:56.259Z,13.30
2022-08-03T07:03:26.682Z,11.95
2022-08-03T07:05:57.263Z,14.27
2022-08-03T07:08:33.197Z,13.05
2022-08-03T07:11:04.922Z,13.75
2022-08-03T07:13:35.496Z,13.98
2022-08-03T07:16:06.249Z,12.32
2022-08-03T07:18:40.820Z,11.23
2022-08-03T07:21:12.873Z,14.25
2022-08-03T07:23:43.330Z,13.10
2022-08-03T07:28:45.922Z,13.55
2022-08-03T07:31:18.671Z,13.35
2022-08-03T07:33:52.217Z,13.70
2022-08-03T07:36:22.654Z,13.38
2022-08-03T07:38:53.136Z,13.75
2022-08-03T07:43:53.311Z,13.93
2022-08-03T07:46:23.825Z,15.02
2022-08-03T07:48:57.285Z,16.73
2022-08-03T07:53:59.041Z,14.32
2022-08-03T07:56:29.796Z,15.80
2022-08-03T08:01:29.807Z,15.73
2022-08-03T08:04:00.376Z,14.85
2022-08-03T08:06:31.067Z,16.63
2022-08-03T08:09:03.546Z,18.10
2022-08-03T08:11:36.924Z,15.52
2022-08-03T08:14:11.096Z,16.27
2022-08-03T08:16:41.598Z,16.88
2022-08-03T08:21:53.569Z,14.75
2022-08-03T08:24:32.689Z,16.13
2022-08-03T08:27:04.955Z,16.52
2022-08-03T08:32:05.291Z,16.10
2022-08-03T08:34:35.719Z,16.77
2022-08-03T08:37:06.353Z,17.13
2022-08-03T08:39:36.725Z,17.70
2022-08-03T08:42:07.196Z,17.52
2022-08-03T08:44:37.738Z,17.60
2022-08-03T08:47:09.922Z,17.05
2022-08-03T08:49:53.418Z,17.10
2022-08-03T08:52:34.102Z,18.30
2022-08-03T08:55:10.542Z,18.13
2022-08-03T08:57:51.008Z,18.88
2022-08-03T09:00:21.446Z,17.35
2022-08-03T09:05:41.333Z,15.63
2022-08-03T09:08:13.584Z,16.77
2022-08-03T09:13:13.561Z,15.07
2022-08-03T09:15:51.326Z,15.70
2022-08-03T09:18:32.339Z,15.10
2022-08-03T09:21:31.654Z,15.20
2022-08-03T09:24:07.011Z,15.70
2022-08-03T09:26:40.951Z,17.70
2022-08-03T09:31:47.839Z,14.77
2022-08-03T09:34:19.793Z,14.45
2022-08-03T09:36:51.809Z,15.07
2022-08-03T09:39:41.077Z,15.40
2022-08-03T09:42:23.952Z,14.68
2022-08-03T09:44:55.004Z,14.40
2022-08-03T09:47:34.827Z,14.10
2022-08-03T09:50:08.447Z,14.15
2022-08-03T09:52:51.960Z,12.60
2022-08-03T09:56:33.753Z,15.10
2022-08-03T09:58:15.649Z,13.32
2022-08-03T10:00:59.745Z,14.93
2022-08-03T10:03:32.609Z,13.65
2022-08-03T10:06:28.741Z,14.73
2022-08-03T10:09:19.079Z,13.70
2022-08-03T10:11:50.821Z,14.02
2022-08-03T10:14:21.618Z,13.05
2022-08-03T10:16:52.317Z,13.82
2022-08-03T10:19:22.827Z,14.48
2022-08-03T10:21:58.812Z,13.38
2022-08-03T10:24:32.306Z,13.77
2022-08-03T10:27:11.178Z,14.82
2022-08-03T10:29:44.753Z,14.98
2022-08-03T10:32:36.290Z,14.95
2022-08-03T10:35:20.948Z,12.65
2022-08-03T10:38:02.667Z,14.02
2022-08-03T10:40:52.666Z,12.50
2022-08-03T10:43:38.725Z,14.48
2022-08-03T10:46:10.307Z,13.40
2022-08-03T10:48:41.185Z,13.15
2022-08-03T10:51:12.159Z,14.40
2022-08-03T10:53:54.202Z,13.15
2022-08-03T10:56:53.498Z,13.05
2022-08-03T10:59:52.143Z,11.93
2022-08-03T11:02:22.620Z,12.77
2022-08-03T11:07:42.721Z,12.80
2022-08-03T11:13:11.069Z,12.07
2022-08-03T11:15:51.678Z,13.18
2022-08-03T11:18:22.494Z,13.25
2022-08-03T11:20:59.522Z,13.25
2022-08-03T11:24:04.210Z,12.25
2022-08-03T11:26:37.051Z,13.10
2022-08-03T11:29:30.125Z,12.60
2022-08-03T11:32:01.357Z,11.98
2022-08-03T11:34:31.759Z,13.05
2022-08-03T11:39:54.897Z,11.80
2022-08-03T11:42:25.372Z,11.50
2022-08-03T11:47:31.323Z,10.20
2022-08-03T11:50:03.312Z,12.32
2022-08-03T11:52:39.202Z,12.38
2022-08-03T11:55:14.337Z,11.45
2022-08-03T11:59:13.191Z,10.88
2022-08-03T12:00:38.233Z,11.60
2022-08-03T12:03:15.656Z,12.05
2022-08-03T12:05:56.025Z,11.32
2022-08-03T12:08:29.253Z,11.15
2022-08-03T12:11:01.535Z,11.45
2022-08-03T12:14:49.768Z,10.82
2022-08-03T12:16:52.070Z,11.68
2022-08-03T12:19:22.665Z,10.85
2022-08-03T12:21:57.266Z,10.52
2022-08-03T12:24:30.802Z,11.15
2022-08-03T12:27:01.201Z,11.50
2022-08-03T12:29:31.635Z,10.55
2022-08-03T12:34:50.773Z,11.52
2022-08-03T12:37:23.381Z,12.13
2022-08-03T12:40:02.448Z,14.93
2022-08-03T12:42:38.502Z,13.82
2022-08-03T12:45:28.535Z,15.07
2022-08-03T12:48:01.502Z,15.02
2022-08-03T12:50:34.272Z,15.18
2022-08-03T12:53:09.105Z,14.52
2022-08-03T12:56:04.520Z,15.73
2022-08-03T12:58:37.885Z,14.73
2022-08-03T13:01:10.777Z,15.23
2022-08-03T13:03:50.210Z,16.35
2022-08-03T13:06:27.176Z,14.65
2022-08-03T13:09:10.087Z,13.27
2022-08-03T13:11:57.584Z,13.45
2022-08-03T13:14:32.768Z,12.98
2022-08-03T13:19:34.628Z,12.68
2022-08-03T13:22:16.625Z,12.40
2022-08-03T13:24:48.905Z,12.32
2022-08-03T13:28:12.468Z,12.82
2022-08-03T13:30:11.491Z,13.60
2022-08-03T13:32:42.032Z,12.30
2022-08-03T13:35:12.907Z,12.60
2022-08-03T13:37:48.925Z,10.40
2022-08-03T13:40:19.918Z,10.75
2022-08-03T13:42:54.201Z,9.98
2022-08-03T13:47:56.110Z,10.48
2022-08-03T13:50:26.502Z,10.80
2022-08-03T13:55:27.303Z,9.50
2022-08-03T13:58:11.479Z,10.45
2022-08-03T14:00:42.644Z,10.15
2022-08-03T14:03:14.402Z,10.18
2022-08-03T14:05:45.805Z,10.43
2022-08-03T14:08:16.238Z,10.20
2022-08-03T14:13:17.746Z,9.40
2022-08-03T14:15:51.917Z,10.00
2022-08-03T14:18:28.293Z,10.57
2022-08-03T14:21:07.191Z,9.60
2022-08-03T14:23:41.889Z,8.80
2022-08-03T14:26:13.287Z,9.57
2022-08-03T14:28:43.948Z,9.98
2022-08-03T14:32:09.794Z,9.65
2022-08-03T14:34:05.240Z,9.38
2022-08-03T14:36:35.633Z,9.15
2022-08-03T14:39:07.183Z,8.70
2022-08-03T14:41:37.751Z,10.43
2022-08-03T14:44:08.385Z,8.77
2022-08-03T14:46:38.764Z,9.75
2022-08-03T14:51:59.077Z,8.75
2022-08-03T14:57:02.487Z,7.45
2022-08-03T14:59:55.537Z,8.05
2022-08-03T15:02:24.086Z,8.20
2022-08-03T15:04:55.014Z,7.93
2022-08-03T15:07:25.429Z,8.25
2022-08-03T15:09:55.813Z,7.93
2022-08-03T15:12:26.280Z,8.55
2022-08-03T15:14:56.848Z,8.65
2022-08-03T15:17:27.367Z,8.43
2022-08-03T15:20:17.008Z,7.90
2022-08-03T15:22:48.515Z,8.55
2022-08-03T15:26:04.056Z,8.00
2022-08-03T15:28:09.304Z,8.38
2022-08-03T15:30:39.825Z,8.32
2022-08-03T15:33:10.344Z,7.97
2022-08-03T15:35:40.848Z,8.38
2022-08-03T15:38:11.224Z,7.85
2022-08-03T15:40:42.163Z,7.97
2022-08-03T15:43:12.588Z,7.53
2022-08-03T15:45:44.222Z,7.30
2022-08-03T15:48:14.488Z,8.38
2022-08-03T15:53:15.303Z,7.88
2022-08-03T15:55:45.836Z,7.50
2022-08-03T15:59:07.604Z,6.85
2022-08-03T16:01:08.699Z,6.65
2022-08-03T16:03:39.659Z,8.07
2022-08-03T16:06:10.637Z,7.38
2022-08-03T16:08:41.012Z,7.63
2022-08-03T16:11:12.548Z,6.82
2022-08-03T16:14:13.002Z,6.82
2022-08-03T16:16:33.765Z,6.63
2022-08-03T16:19:05.410Z,6.97
2022-08-03T16:21:48.284Z,7.57
2022-08-03T16:24:24.241Z,6.53
2022-08-03T16:27:00.562Z,6.88
2022-08-03T16:29:31.219Z,7.68
2022-08-03T16:32:09.506Z,6.78
2022-08-03T16:34:41.050Z,6.78
2022-08-03T16:37:37.265Z,6.88
2022-08-03T16:40:02.842Z,6.60
2022-08-03T16:42:33.816Z,6.22
2022-08-03T16:45:05.000Z,7.05
2022-08-03T16:47:35.864Z,6.18
2022-08-03T16:50:13.985Z,6.05
2022-08-03T16:52:48.545Z,6.82
2022-08-03T16:55:48.900Z,6.43
2022-08-03T16:58:12.558Z,7.43
2022-08-03T17:00:44.388Z,6.70
2022-08-03T17:03:24.080Z,6.85
2022-08-03T17:05:54.902Z,7.25
2022-08-03T17:08:30.211Z,6.65
2022-08-03T17:11:00.694Z,7.15
2022-08-03T17:13:39.239Z,6.32
2022-08-03T17:16:15.142Z,6.60
2022-08-03T17:19:01.893Z,6.63
2022-08-03T17:21:34.700Z,6.07
2022-08-03T17:24:12.293Z,6.18
2022-08-03T17:26:46.395Z,6.43
2022-08-03T17:29:26.133Z,7.00
2022-08-03T17:32:02.900Z,6.57
2022-08-03T17:34:36.438Z,7.05
2022-08-03T17:37:27.373Z,6.55
2022-08-03T17:40:01.195Z,6.00
2022-08-03T17:42:35.802Z,6.43
2022-08-03T17:45:07.935Z,6.13
2022-08-03T17:47:57.358Z,6.50
2022-08-03T17:50:45.997Z,7.15
2022-08-03T17:53:24.667Z,5.72
2022-08-03T17:56:44.372Z,6.35
2022-08-03T17:59:51.918Z,6.78
2022-08-03T18:02:55.488Z,6.50
2022-08-03T18:06:09.027Z,6.03
2022-08-03T18:08:28.898Z,5.75
2022-08-03T18:11:14.988Z,6.50
2022-08-03T18:14:16.546Z,7.38
2022-08-03T18:17:00.157Z,7.15
2022-08-03T18:20:01.012Z,7.38
2022-08-03T18:25:13.554Z,6.88
2022-08-03T18:27:47.457Z,6.97
2022-08-03T18:30:18.254Z,7.40
2022-08-03T18:35:53.740Z,7.97
2022-08-03T18:38:25.425Z,6.60
2022-08-03T18:40:56.009Z,7.40
2022-08-03T18:43:47.580Z,6.70
2022-08-03T18:46:25.934Z,6.90
2022-08-03T18:49:08.305Z,7.78
2022-08-03T18:51:47.026Z,7.60
2022-08-03T18:54:57.273Z,8.18
2022-08-03T18:57:30.418Z,7.90
2022-08-03T19:00:14.128Z,7.97
2022-08-03T19:02:53.602Z,7.50
2022-08-03T19:05:56.434Z,7.47
2022-08-03T19:08:26.562Z,7.75
2022-08-03T19:11:06.120Z,8.05
2022-08-03T19:13:50.341Z,7.53
2022-08-03T19:16:34.309Z,8.02
2022-08-03T19:19:05.083Z,7.55
2022-08-03T19:21:38.088Z,7.05
2022-08-03T19:24:10.552Z,7.68
2022-08-03T19:26:42.625Z,7.50
2022-08-03T19:29:20.480Z,7.72
2022-08-03T19:31:59.182Z,8.18
2022-08-03T19:34:34.071Z,7.72
2022-08-03T19:37:15.443Z,8.57
2022-08-03T19:39:46.051Z,8.30
2022-08-03T19:42:33.092Z,8.20
2022-08-03T19:47:53.314Z,8.40
2022-08-03T19:50:24.318Z,8.32
2022-08-03T19:52:56.698Z,8.40
2022-08-03T19:55:32.255Z,7.57
2022-08-03T19:58:05.510Z,8.70
2022-08-03T20:00:39.360Z,8.73
2022-08-03T20:03:22.016Z,8.23
2022-08-03T20:05:54.290Z,8.70
2022-08-03T20:08:26.672Z,8.65
2022-08-03T20:10:57.420Z,8.10
2022-08-03T20:13:28.641Z,8.48
2022-08-03T20:15:59.226Z,8.02
2022-08-03T20:18:29.755Z,8.43
2022-08-03T20:21:05.597Z,8.95
2022-08-03T20:24:01.903Z,8.55
2022-08-03T20:26:38.111Z,8.82
2022-08-03T20:29:11.055Z,9.43
2022-08-03T20:31:42.487Z,8.68
2022-08-03T20:34:12.824Z,9.70
2022-08-03T20:36:48.244Z,9.13
2022-08-03T20:39:18.850Z,9.75
2022-08-03T20:41:49.397Z,9.48
2022-08-03T20:44:19.926Z,8.43
2022-08-03T20:47:00.510Z,9.25
2022-08-03T20:52:26.020Z,9.98
2022-08-03T20:54:57.249Z,9.32
2022-08-03T20:57:28.677Z,8.25
2022-08-03T21:00:14.873Z,9.50
2022-08-03T21:02:45.749Z,9.40
2022-08-03T21:05:16.203Z,9.35
2022-08-03T21:08:06.909Z,9.80
2022-08-03T21:10:41.998Z,8.50
2022-08-03T21:12:57.781Z,6.78
2022-08-03T21:12:58.266Z,7.43
2022-08-03T21:13:07.508Z,9.48
2022-08-03T21:13:27.171Z,9.45
2022-08-03T21:16:07.016Z,9.68
2022-08-03T21:18:50.021Z,9.32
2022-08-03T21:21:23.092Z,9.45
2022-08-03T21:23:55.618Z,8.93
2022-08-03T21:26:28.325Z,9.23
2022-08-03T21:28:58.968Z,9.95
2022-08-03T21:31:30.232Z,10.30
2022-08-03T21:34:05.713Z,9.77
2022-08-03T21:36:38.881Z,9.93
2022-08-03T21:39:11.782Z,10.35
2022-08-03T21:41:42.710Z,9.45
2022-08-03T21:44:13.141Z,10.90
2022-08-03T21:46:45.652Z,10.73
2022-08-03T21:50:04.559Z,9.45
2022-08-03T21:52:08.233Z,11.15
2022-08-03T21:54:43.571Z,10.75
2022-08-03T21:57:27.455Z,10.57
2022-08-03T22:00:03.498Z,11.60
2022-08-03T22:02:54.531Z,10.43
2022-08-03T22:05:43.007Z,9.48
2022-08-03T22:08:17.279Z,10.77
2022-08-03T22:10:50.407Z,11.90
2022-08-03T22:13:43.575Z,11.07
2022-08-03T22:16:12.466Z,11.30
2022-08-03T22:18:46.574Z,13.70
2022-08-03T22:21:28.120Z,11.88
2022-08-03T22:24:07.771Z,11.80
2022-08-03T22:27:02.671Z,12.48
2022-08-03T22:29:38.437Z,11.65
2022-08-03T22:32:09.226Z,13.25
2022-08-03T22:34:40.472Z,12.50
2022-08-03T22:37:12.809Z,12.32
2022-08-03T22:39:45.933Z,12.43
2022-08-03T22:42:17.483Z,12.63
2022-08-03T22:44:50.635Z,12.18
2022-08-03T22:47:23.271Z,11.73
2022-08-03T22:50:31.514Z,11.68
2022-08-03T22:52:47.971Z,11.98
2022-08-03T22:55:24.902Z,12.05
2022-08-03T22:57:56.551Z,12.75
2022-08-03T23:00:27.506Z,12.43
2022-08-03T23:03:01.951Z,11.20
2022-08-03T23:06:02.460Z,11.27
2022-08-03T23:08:27.309Z,11.57
2022-08-03T23:11:05.081Z,13.27
2022-08-03T23:13:35.976Z,15.52
2022-08-03T23:16:08.610Z,15.55
2022-08-03T23:18:40.667Z,14.45
2022-08-03T23:21:11.884Z,15.48
2022-08-03T23:23:47.184Z,15.18
2022-08-03T23:26:20.918Z,14.98
2022-08-03T23:28:52.466Z,14.52
2022-08-03T23:31:26.925Z,14.95
2022-08-03T23:34:20.717Z,13.88
2022-08-03T23:36:51.658Z,15.52
2022-08-03T23:39:24.258Z,14.48
2022-08-03T23:41:55.502Z,14.20
2022-08-03T23:44:29.065Z,14.40
2022-08-03T23:47:00.263Z,15.55
2022-08-03T23:49:30.730Z,14.50
2022-08-03T23:52:13.955Z,13.38
2022-08-03T23:55:37.834Z,14.90
2022-08-03T23:58:41.635Z,13.82
